createdAt,value
2018-12-24T00:02:10.481Z,12.50
2018-12-24T00:07:11.717Z,12.50
2018-12-24T00:12:13.059Z,12.50
2018-12-24T00:17:14.293Z,12.60
2018-12-24T00:22:15.529Z,15.90
2018-12-24T00:27:17.080Z,12.60
2018-12-24T00:32:18.303Z,12.50
2018-12-24T00:37:19.544Z,12.60
2018-12-24T00:42:20.765Z,12.50
2018-12-24T00:47:22.107Z,12.60
2018-12-24T00:52:23.329Z,12.50
2018-12-24T00:57:24.549Z,12.40
2018-12-24T01:02:25.768Z,12.30
2018-12-24T01:07:26.983Z,12.30
2018-12-24T01:12:28.215Z,12.30
2018-12-24T01:17:29.427Z,12.30
2018-12-24T01:22:30.655Z,12.10
2018-12-24T01:27:31.891Z,12.00
2018-12-24T01:32:33.112Z,11.70
2018-12-24T01:37:34.373Z,11.50
2018-12-24T01:42:35.655Z,11.40
2018-12-24T01:47:37.259Z,11.40
2018-12-24T01:52:38.560Z,11.40
2018-12-24T01:57:39.770Z,11.40
2018-12-24T02:02:40.991Z,11.30
2018-12-24T02:07:42.217Z,11.30
2018-12-24T02:12:43.464Z,11.20
2018-12-24T02:17:44.683Z,11.10
2018-12-24T02:22:45.936Z,11.10
2018-12-24T02:27:48.082Z,11.10
2018-12-24T02:32:49.283Z,11.10
2018-12-24T02:37:50.536Z,11.00
2018-12-24T02:42:52.464Z,10.60
2018-12-24T02:47:54.179Z,9.10
2018-12-24T02:52:55.415Z,8.10
2018-12-24T02:57:56.621Z,7.70
2018-12-24T03:02:57.832Z,7.50
2018-12-24T03:07:59.054Z,7.60
2018-12-24T03:13:02.737Z,7.50
2018-12-24T03:18:03.407Z,7.50
2018-12-24T03:23:04.671Z,7.50
2018-12-24T03:28:05.860Z,7.60
2018-12-24T03:33:07.106Z,7.60
2018-12-24T03:38:12.102Z,7.60
2018-12-24T03:43:13.324Z,7.60
2018-12-24T03:48:14.672Z,7.60
2018-12-24T03:53:15.899Z,7.60
2018-12-24T03:58:17.135Z,7.50
2018-12-24T04:03:18.349Z,7.50
2018-12-24T04:08:19.563Z,10.80
2018-12-24T04:13:22.571Z,7.50
2018-12-24T04:18:23.951Z,10.40
2018-12-24T04:23:25.162Z,7.30
2018-12-24T04:28:27.409Z,7.60
2018-12-24T04:33:28.639Z,6.90
2018-12-24T04:38:29.976Z,6.70
2018-12-24T04:43:32.378Z,6.60
2018-12-24T04:48:34.129Z,6.50
2018-12-24T04:53:35.345Z,6.40
2018-12-24T04:58:36.590Z,6.70
2018-12-24T05:03:37.809Z,6.20
2018-12-24T05:08:39.022Z,6.20
2018-12-24T05:13:40.975Z,6.10
2018-12-24T05:18:42.572Z,6.00
2018-12-24T05:23:43.798Z,6.00
2018-12-24T05:28:44.997Z,5.90
2018-12-24T05:33:46.219Z,5.90
2018-12-24T05:38:47.463Z,5.90
2018-12-24T05:43:49.484Z,5.80
2018-12-24T05:48:51.558Z,5.80
2018-12-24T05:53:52.759Z,5.80
2018-12-24T05:58:53.974Z,5.70
2018-12-24T06:03:57.124Z,5.70
2018-12-24T06:08:58.378Z,5.70
2018-12-24T06:13:59.594Z,5.60
2018-12-24T06:19:00.819Z,5.60
2018-12-24T06:24:02.451Z,5.60
2018-12-24T06:29:03.783Z,5.50
2018-12-24T06:34:05.008Z,5.50
2018-12-24T06:39:06.256Z,5.50
2018-12-24T06:44:07.468Z,5.50
2018-12-24T06:49:08.702Z,5.40
2018-12-24T06:54:09.920Z,5.40
2018-12-24T06:59:11.150Z,5.40
2018-12-24T07:04:12.339Z,5.40
2018-12-24T07:09:13.690Z,5.30
2018-12-24T07:14:15.547Z,5.30
2018-12-24T07:19:17.133Z,5.70
2018-12-24T07:24:18.355Z,5.10
2018-12-24T07:29:19.580Z,5.50
2018-12-24T07:34:20.798Z,5.00
2018-12-24T07:39:22.035Z,5.00
2018-12-24T07:44:24.321Z,5.00
2018-12-24T07:49:25.890Z,5.10
2018-12-24T07:54:27.112Z,5.00
2018-12-24T07:59:28.639Z,5.30
2018-12-24T08:04:29.864Z,5.00
2018-12-24T08:09:31.096Z,5.00
2018-12-24T08:14:33.246Z,4.90
2018-12-24T08:19:35.140Z,4.90
2018-12-24T08:24:36.383Z,5.00
2018-12-24T08:29:38.312Z,5.00
2018-12-24T08:34:39.548Z,5.00
2018-12-24T08:39:40.799Z,5.10
2018-12-24T08:44:42.217Z,5.10
2018-12-24T08:49:43.675Z,5.20
2018-12-24T08:54:44.903Z,5.20
2018-12-24T08:59:46.134Z,5.20
2018-12-24T09:04:47.346Z,5.30
2018-12-24T09:09:48.568Z,5.20
2018-12-24T09:14:50.366Z,5.30
2018-12-24T09:19:52.008Z,5.10
2018-12-24T09:24:53.228Z,5.10
2018-12-24T09:29:54.468Z,5.20
2018-12-24T09:34:55.688Z,5.10
2018-12-24T09:39:56.907Z,5.70
2018-12-24T09:44:59.075Z,5.10
2018-12-24T09:50:00.639Z,5.20
2018-12-24T09:55:02.018Z,5.20
2018-12-24T10:00:07.053Z,5.10
2018-12-24T10:05:08.481Z,5.00
2018-12-24T10:10:09.816Z,5.10
2018-12-24T10:15:11.048Z,5.30
2018-12-24T10:20:12.313Z,5.20
2018-12-24T10:25:13.528Z,5.30
2018-12-24T10:30:14.853Z,5.70
2018-12-24T10:35:16.075Z,5.40
2018-12-24T10:40:17.423Z,5.40
2018-12-24T10:45:18.663Z,5.40
2018-12-24T10:50:20.020Z,5.40
2018-12-24T10:55:21.249Z,5.40
2018-12-24T11:00:22.485Z,5.20
2018-12-24T11:06:28.195Z,5.10
2018-12-24T11:11:29.997Z,4.90
2018-12-24T11:16:31.230Z,4.80
2018-12-24T11:21:32.344Z,4.90
2018-12-24T11:26:33.444Z,5.00
2018-12-24T11:31:34.568Z,5.10
2018-12-24T11:36:35.680Z,5.40
2018-12-24T11:41:36.814Z,6.50
2018-12-24T11:46:37.918Z,6.10
2018-12-24T11:51:39.048Z,6.50
2018-12-24T11:56:40.156Z,6.50
2018-12-24T12:01:41.244Z,6.50
2018-12-24T12:06:42.368Z,6.40
2018-12-24T12:11:43.468Z,6.30
2018-12-24T12:16:44.592Z,6.30
2018-12-24T12:21:45.716Z,6.60
2018-12-24T12:26:47.920Z,6.70
2018-12-24T12:31:51.057Z,6.70
2018-12-24T12:36:52.041Z,7.50
2018-12-24T12:41:53.144Z,9.40
2018-12-24T12:46:54.254Z,9.30
2018-12-24T12:51:55.374Z,8.40
2018-12-24T12:56:56.489Z,7.50
2018-12-24T13:01:57.595Z,6.90
2018-12-24T13:06:58.722Z,6.20
2018-12-24T13:11:59.823Z,5.50
2018-12-24T13:17:00.952Z,5.10
2018-12-24T13:22:04.393Z,5.00
2018-12-24T13:27:06.897Z,5.10
2018-12-24T13:32:08.062Z,5.30
2018-12-24T13:37:09.162Z,6.00
2018-12-24T13:42:10.262Z,5.60
2018-12-24T13:47:11.347Z,5.50
2018-12-24T13:52:12.504Z,6.50
2018-12-24T13:57:13.591Z,5.40
2018-12-24T14:02:16.521Z,6.40
2018-12-24T14:07:18.792Z,5.50
2018-12-24T14:12:19.988Z,5.60
2018-12-24T14:17:21.179Z,6.00
2018-12-24T14:22:22.275Z,5.90
2018-12-24T14:27:23.412Z,5.60
2018-12-24T14:32:24.519Z,5.60
2018-12-24T14:37:25.610Z,5.60
2018-12-24T14:42:26.799Z,5.80
2018-12-24T14:47:27.875Z,5.50
2018-12-24T14:52:28.995Z,5.60
2018-12-24T14:57:30.120Z,5.20
2018-12-24T15:02:31.224Z,5.00
2018-12-24T15:07:32.371Z,5.00
2018-12-24T15:12:33.659Z,4.90
2018-12-24T15:17:34.777Z,4.90
2018-12-24T15:22:35.900Z,4.80
2018-12-24T15:27:37.026Z,4.80
2018-12-24T15:32:38.119Z,4.80
2018-12-24T15:37:39.215Z,4.80
2018-12-24T15:42:40.316Z,4.70
2018-12-24T15:47:41.424Z,4.70
2018-12-24T15:52:42.595Z,4.70
2018-12-24T15:57:43.684Z,4.60
2018-12-24T16:02:44.788Z,4.60
2018-12-24T16:07:45.911Z,4.60
2018-12-24T16:12:47.015Z,4.60
2018-12-24T16:17:48.127Z,4.60
2018-12-24T16:22:49.231Z,5.50
2018-12-24T16:27:50.823Z,4.50
2018-12-24T16:32:51.924Z,4.50
2018-12-24T16:37:53.016Z,4.60
2018-12-24T16:42:54.148Z,4.70
2018-12-24T16:47:55.240Z,5.40
2018-12-24T16:52:56.370Z,4.60
2018-12-24T16:57:57.483Z,4.70
2018-12-24T17:02:58.586Z,4.50
2018-12-24T17:07:59.718Z,4.20
2018-12-24T17:13:00.822Z,4.10
2018-12-24T17:18:02.227Z,4.00
2018-12-24T17:23:03.536Z,4.00
2018-12-24T17:28:04.635Z,4.00
2018-12-24T17:33:05.748Z,4.40
2018-12-24T17:38:06.841Z,3.80
2018-12-24T17:43:07.931Z,3.80
2018-12-24T17:48:09.066Z,3.70
2018-12-24T17:53:10.175Z,4.00
2018-12-24T17:58:11.264Z,3.60
2018-12-24T18:03:12.364Z,3.50
2018-12-24T18:08:13.476Z,3.50
2018-12-24T18:13:14.575Z,3.80
2018-12-24T18:18:15.699Z,3.80
2018-12-24T18:23:19.862Z,3.40
2018-12-24T18:28:20.936Z,3.30
2018-12-24T18:33:22.036Z,3.20
2018-12-24T18:38:23.130Z,3.80
2018-12-24T18:43:24.224Z,3.10
2018-12-24T18:48:25.324Z,3.10
2018-12-24T18:53:26.440Z,3.10
2018-12-24T18:58:27.727Z,3.10
2018-12-24T19:03:28.844Z,3.70
2018-12-24T19:08:29.990Z,3.20
2018-12-24T19:13:31.095Z,3.60
2018-12-24T19:18:32.190Z,4.10
2018-12-24T19:23:33.293Z,3.20
2018-12-24T19:28:34.397Z,3.10
2018-12-24T19:33:37.427Z,3.00
2018-12-24T19:38:38.527Z,3.40
2018-12-24T19:43:39.635Z,2.70
2018-12-24T19:48:40.755Z,2.40
2018-12-24T19:53:41.855Z,3.80
2018-12-24T19:58:42.971Z,2.20
2018-12-24T20:03:44.073Z,2.00
2018-12-24T20:08:45.187Z,2.60
2018-12-24T20:13:46.296Z,2.00
2018-12-24T20:18:47.466Z,2.70
2018-12-24T20:23:48.655Z,2.40
2018-12-24T20:28:49.758Z,2.80
2018-12-24T20:33:50.871Z,2.60
2018-12-24T20:38:52.087Z,3.70
2018-12-24T20:43:53.368Z,2.70
2018-12-24T20:48:54.630Z,2.80
2018-12-24T20:53:56.122Z,2.90
2018-12-24T20:58:58.266Z,2.90
2018-12-24T21:03:59.771Z,2.90
2018-12-24T21:09:00.981Z,2.90
2018-12-24T21:14:02.089Z,2.90
2018-12-24T21:19:03.195Z,3.00
2018-12-24T21:24:04.301Z,4.00
2018-12-24T21:29:05.411Z,2.90
2018-12-24T21:34:06.508Z,3.00
2018-12-24T21:39:07.616Z,2.80
2018-12-24T21:44:08.723Z,2.80
2018-12-24T21:49:09.820Z,3.00
2018-12-24T21:54:10.957Z,2.50
2018-12-24T21:59:12.067Z,2.20
2018-12-24T22:04:13.172Z,5.80
2018-12-24T22:09:14.393Z,2.20
2018-12-24T22:14:15.497Z,2.20
2018-12-24T22:19:16.925Z,2.00
2018-12-24T22:24:18.030Z,2.00
2018-12-24T22:29:19.135Z,1.90
2018-12-24T22:34:20.261Z,4.20
2018-12-24T22:39:21.364Z,1.90
2018-12-24T22:44:22.457Z,1.80
2018-12-24T22:49:23.576Z,1.90
2018-12-24T22:54:24.693Z,1.90
2018-12-24T22:59:25.788Z,2.00
2018-12-24T23:04:26.889Z,2.00
2018-12-24T23:09:28.248Z,2.00
2018-12-24T23:14:29.353Z,2.00
2018-12-24T23:19:30.447Z,2.60
2018-12-24T23:24:31.549Z,2.40
2018-12-24T23:29:32.680Z,2.20
2018-12-24T23:34:33.801Z,2.10
2018-12-24T23:39:34.899Z,3.20
2018-12-24T23:44:35.999Z,2.20
2018-12-24T23:49:37.128Z,2.20
2018-12-24T23:54:38.224Z,2.10
2018-12-24T23:59:39.357Z,2.10
